createdAt,value
2022-09-13T00:03:14.173Z,2.94
2022-09-13T00:08:21.482Z,2.94
2022-09-13T00:13:28.399Z,2.94
2022-09-13T00:18:36.884Z,2.94
2022-09-13T00:23:43.822Z,2.95
2022-09-13T00:28:52.569Z,2.94
2022-09-13T00:34:00.887Z,2.94
2022-09-13T00:39:07.727Z,2.94
2022-09-13T00:44:15.991Z,2.95
2022-09-13T00:49:23.455Z,2.94
2022-09-13T00:54:30.656Z,2.94
2022-09-13T00:59:37.862Z,2.95
2022-09-13T01:04:45.055Z,2.94
2022-09-13T01:09:52.472Z,2.95
2022-09-13T01:15:00.092Z,2.95
2022-09-13T01:20:07.266Z,2.95
2022-09-13T01:25:14.459Z,2.94
2022-09-13T01:30:23.073Z,2.94
2022-09-13T01:35:29.539Z,2.94
2022-09-13T01:40:37.933Z,2.95
2022-09-13T01:45:45.592Z,2.93
2022-09-13T01:50:53.806Z,2.94
2022-09-13T01:56:01.831Z,2.95
2022-09-13T02:01:08.103Z,2.94
2022-09-13T02:06:15.983Z,2.94
2022-09-13T02:11:25.545Z,2.93
2022-09-13T02:16:33.077Z,2.92
2022-09-13T02:21:40.100Z,2.94
2022-09-13T02:26:47.899Z,2.94
2022-09-13T02:31:56.375Z,2.94
2022-09-13T02:37:03.690Z,2.93
2022-09-13T02:42:11.828Z,2.93
2022-09-13T02:47:19.539Z,2.94
2022-09-13T02:52:26.179Z,2.93
2022-09-13T02:57:34.042Z,2.93
2022-09-13T03:02:42.603Z,2.94
2022-09-13T03:07:51.187Z,2.94
2022-09-13T03:12:58.872Z,2.93
2022-09-13T03:18:06.217Z,2.92
2022-09-13T03:23:14.178Z,2.95
2022-09-13T03:28:21.689Z,2.94
2022-09-13T03:33:29.189Z,2.94
2022-09-13T03:38:36.376Z,2.93
2022-09-13T03:43:42.975Z,2.94
2022-09-13T03:48:51.213Z,2.93
2022-09-13T03:53:58.907Z,2.94
2022-09-13T03:59:06.771Z,2.94
2022-09-13T04:04:15.802Z,2.94
2022-09-13T04:09:22.582Z,2.94
2022-09-13T04:14:30.024Z,2.94
2022-09-13T04:19:37.215Z,2.92
2022-09-13T04:24:44.650Z,2.94
2022-09-13T04:29:51.615Z,2.94
2022-09-13T04:35:00.048Z,2.94
2022-09-13T04:40:08.120Z,2.93
2022-09-13T04:45:14.853Z,2.93
2022-09-13T04:50:23.453Z,2.93
2022-09-13T04:55:32.046Z,2.94
2022-09-13T05:00:40.811Z,2.94
2022-09-13T05:05:48.406Z,2.94
2022-09-13T05:10:55.656Z,2.94
2022-09-13T05:16:02.804Z,2.94
2022-09-13T05:21:11.185Z,2.94
2022-09-13T05:26:18.461Z,2.95
2022-09-13T05:31:26.125Z,2.94
2022-09-13T05:36:34.102Z,2.94
2022-09-13T05:41:43.134Z,2.94
2022-09-13T05:46:54.023Z,2.95
2022-09-13T05:52:01.868Z,2.96
2022-09-13T05:57:09.552Z,2.96
2022-09-13T06:02:17.774Z,2.96
2022-09-13T06:07:24.417Z,2.97
2022-09-13T06:12:32.287Z,2.96
2022-09-13T06:17:41.846Z,2.97
2022-09-13T06:22:49.332Z,2.96
2022-09-13T06:27:57.246Z,2.97
2022-09-13T06:33:04.860Z,2.98
2022-09-13T06:38:12.058Z,2.98
2022-09-13T06:43:19.274Z,3.0
2022-09-13T06:48:26.455Z,3.0
2022-09-13T06:53:34.166Z,2.98
2022-09-13T06:58:49.958Z,2.98
2022-09-13T07:03:57.660Z,2.99
2022-09-13T07:09:06.313Z,3.0
2022-09-13T07:14:22.291Z,2.99
2022-09-13T07:19:31.046Z,2.99
2022-09-13T07:24:38.649Z,2.99
2022-09-13T07:29:47.094Z,2.99
2022-09-13T07:34:54.482Z,2.99
2022-09-13T07:40:04.767Z,3.0
2022-09-13T07:45:13.049Z,2.99
2022-09-13T07:50:21.294Z,2.99
2022-09-13T07:55:29.365Z,2.99
2022-09-13T08:00:37.850Z,3.0
2022-09-13T08:05:46.003Z,2.99
2022-09-13T08:10:53.047Z,2.99
2022-09-13T08:16:01.719Z,3.0
2022-09-13T08:21:10.487Z,2.99
2022-09-13T08:26:17.177Z,3.0
2022-09-13T08:31:26.168Z,3.0
2022-09-13T08:36:33.496Z,2.99
2022-09-13T08:41:41.033Z,3.0
2022-09-13T08:46:48.567Z,3.0
2022-09-13T08:51:55.943Z,2.99
2022-09-13T08:57:04.234Z,3.0
2022-09-13T09:02:12.409Z,2.99
2022-09-13T09:07:19.255Z,3.0
2022-09-13T09:12:26.873Z,3.0
2022-09-13T09:17:35.165Z,3.0
2022-09-13T09:22:42.146Z,3.0
2022-09-13T09:27:50.094Z,3.0
2022-09-13T09:32:58.971Z,2.99
2022-09-13T09:38:07.371Z,3.01
2022-09-13T09:43:14.787Z,2.99
2022-09-13T09:48:23.780Z,3.0
2022-09-13T09:53:31.785Z,3.0
2022-09-13T09:58:39.537Z,2.99
2022-09-13T10:03:47.927Z,2.99
2022-09-13T10:08:56.030Z,3.0
2022-09-13T10:14:04.247Z,2.99
2022-09-13T10:19:12.184Z,3.0
2022-09-13T10:24:19.423Z,3.0
2022-09-13T10:29:27.771Z,2.99
2022-09-13T10:34:34.470Z,3.0
2022-09-13T10:39:42.572Z,2.99
2022-09-13T10:44:49.541Z,3.0
2022-09-13T10:49:56.729Z,2.99
2022-09-13T10:55:08.408Z,3.0
2022-09-13T11:00:17.232Z,3.01
2022-09-13T11:05:24.337Z,3.0
2022-09-13T11:10:32.109Z,3.0
2022-09-13T11:15:39.870Z,3.0
2022-09-13T11:20:47.906Z,3.0
2022-09-13T11:25:56.788Z,3.0
2022-09-13T11:31:04.326Z,3.01
2022-09-13T11:36:12.249Z,3.0
2022-09-13T11:41:20.865Z,2.99
2022-09-13T11:46:28.661Z,3.0
2022-09-13T11:51:36.524Z,3.0
2022-09-13T11:56:44.885Z,3.01
2022-09-13T12:01:52.222Z,3.01
2022-09-13T12:06:58.132Z,3.0
2022-09-13T12:12:05.353Z,2.99
2022-09-13T12:17:12.539Z,2.99
2022-09-13T12:22:20.686Z,3.0
2022-09-13T12:27:28.635Z,2.99
2022-09-13T12:32:36.742Z,2.99
2022-09-13T12:37:46.338Z,3.0
2022-09-13T12:42:53.662Z,2.98
2022-09-13T12:48:01.753Z,3.0
2022-09-13T12:53:10.298Z,3.0
2022-09-13T12:58:18.817Z,3.0
2022-09-13T13:03:27.783Z,3.0
2022-09-13T13:08:35.930Z,2.98
2022-09-13T13:13:44.132Z,2.99
2022-09-13T13:18:52.892Z,2.99
2022-09-13T13:24:44.414Z,2.99
2022-09-13T13:29:53.469Z,2.98
2022-09-13T13:35:00.701Z,2.99
2022-09-13T13:40:09.257Z,3.0
2022-09-13T13:45:16.401Z,3.0
2022-09-13T13:50:22.945Z,3.0
2022-09-13T13:55:31.288Z,3.0
2022-09-13T14:00:38.215Z,3.0
2022-09-13T14:05:46.159Z,2.99
2022-09-13T14:10:53.656Z,3.0
2022-09-13T14:16:01.724Z,2.99
2022-09-13T14:21:09.844Z,3.0
2022-09-13T14:26:18.065Z,3.0
2022-09-13T14:31:26.272Z,3.0
2022-09-13T14:36:35.408Z,2.99
2022-09-13T14:41:44.242Z,2.99
2022-09-13T14:46:51.760Z,3.0
2022-09-13T14:51:58.277Z,3.0
2022-09-13T14:57:06.169Z,3.0
2022-09-13T15:02:14.880Z,2.99
2022-09-13T15:07:23.429Z,2.98
2022-09-13T15:12:30.653Z,2.98
2022-09-13T15:17:38.164Z,3.0
2022-09-13T15:22:45.969Z,2.98
2022-09-13T15:27:53.691Z,2.98
2022-09-13T15:33:01.592Z,2.98
2022-09-13T15:38:08.992Z,2.98
2022-09-13T15:43:16.259Z,2.98
2022-09-13T15:48:23.931Z,2.98
2022-09-13T15:53:32.722Z,2.99
2022-09-13T15:58:41.459Z,2.99
2022-09-13T16:03:48.078Z,2.99
2022-09-13T16:08:56.395Z,2.99
2022-09-13T16:14:23.640Z,2.98
2022-09-13T16:19:31.938Z,2.99
2022-09-13T16:24:45.778Z,2.98
2022-09-13T16:29:53.629Z,2.98
2022-09-13T16:35:01.342Z,2.99
2022-09-13T16:40:09.653Z,2.98
2022-09-13T16:45:17.078Z,2.99
2022-09-13T16:50:30.555Z,2.99
2022-09-13T16:55:36.580Z,2.98
2022-09-13T17:00:44.524Z,2.98
2022-09-13T17:07:33.008Z,2.98
2022-09-13T17:12:38.618Z,2.98
2022-09-13T17:17:45.251Z,2.99
2022-09-13T17:22:52.340Z,2.98
2022-09-13T17:27:59.943Z,2.98
2022-09-13T17:33:07.733Z,2.98
2022-09-13T17:38:14.756Z,2.98
2022-09-13T17:43:22.009Z,2.98
2022-09-13T17:48:29.395Z,2.98
2022-09-13T17:53:36.717Z,2.98
2022-09-13T17:58:45.459Z,2.98
2022-09-13T18:03:53.113Z,2.98
2022-09-13T18:09:00.382Z,2.98
2022-09-13T18:14:06.968Z,2.97
2022-09-13T18:19:15.233Z,2.98
2022-09-13T18:24:22.653Z,2.98
2022-09-13T18:29:31.434Z,2.97
2022-09-13T18:34:39.761Z,2.98
2022-09-13T18:39:49.323Z,2.97
2022-09-13T18:44:56.569Z,2.98
2022-09-13T18:51:56.978Z,2.98
2022-09-13T18:57:02.976Z,2.97
2022-09-13T19:02:11.290Z,2.98
2022-09-13T19:07:20.032Z,2.97
2022-09-13T19:12:27.880Z,2.98
2022-09-13T19:17:34.309Z,2.97
2022-09-13T19:22:42.864Z,2.97
2022-09-13T19:27:52.110Z,2.98
2022-09-13T19:33:00.424Z,2.97
2022-09-13T19:38:08.204Z,2.97
2022-09-13T19:43:16.265Z,2.97
2022-09-13T19:48:24.026Z,2.96
2022-09-13T19:53:31.188Z,2.96
2022-09-13T19:58:39.444Z,2.97
2022-09-13T20:03:46.782Z,2.98
2022-09-13T20:08:56.305Z,2.97
2022-09-13T20:14:03.741Z,2.97
2022-09-13T20:19:11.552Z,2.97
2022-09-13T20:24:19.286Z,2.97
2022-09-13T20:29:27.431Z,2.98
2022-09-13T20:34:40.219Z,2.97
2022-09-13T20:39:46.920Z,2.97
2022-09-13T20:44:55.705Z,2.98
2022-09-13T20:50:02.454Z,2.97
2022-09-13T20:55:10.296Z,2.97
2022-09-13T21:00:18.194Z,2.97
2022-09-13T21:05:25.379Z,2.97
2022-09-13T21:10:33.189Z,2.98
2022-09-13T21:15:41.574Z,2.96
2022-09-13T21:20:50.113Z,2.98
2022-09-13T21:25:58.541Z,2.97
2022-09-13T21:31:06.640Z,2.96
2022-09-13T21:36:14.892Z,2.97
2022-09-13T21:41:23.002Z,2.96
2022-09-13T21:46:30.620Z,2.97
2022-09-13T21:51:38.641Z,2.96
2022-09-13T21:56:46.332Z,2.96
2022-09-13T22:01:54.753Z,2.97
2022-09-13T22:07:02.027Z,2.96
2022-09-13T22:12:10.477Z,2.97
2022-09-13T22:17:18.564Z,2.97
2022-09-13T22:22:26.205Z,2.97
2022-09-13T22:27:34.002Z,2.97
2022-09-13T22:32:41.592Z,2.97
2022-09-13T22:37:50.076Z,2.97
2022-09-13T22:42:58.235Z,2.98
2022-09-13T22:48:06.603Z,2.96
2022-09-13T22:53:13.906Z,2.96
2022-09-13T22:58:26.167Z,2.97
2022-09-13T23:03:33.606Z,2.96
2022-09-13T23:08:40.814Z,2.97
2022-09-13T23:13:47.844Z,2.97
2022-09-13T23:18:55.610Z,2.97
2022-09-13T23:24:03.937Z,2.97
2022-09-13T23:29:10.010Z,2.97
2022-09-13T23:34:17.446Z,2.97
2022-09-13T23:39:26.738Z,2.97
2022-09-13T23:44:34.885Z,2.97
2022-09-13T23:49:43.093Z,2.96
2022-09-13T23:54:49.819Z,2.98
2022-09-13T23:59:57.395Z,2.97
